createdAt,value
2023-04-08T00:01:33.731Z,17.07
2023-04-08T00:06:35.724Z,19.03
2023-04-08T00:11:38.045Z,17.43
2023-04-08T00:16:44.830Z,16.47
2023-04-08T00:21:51.281Z,17.03
2023-04-08T00:26:56.526Z,16.77
2023-04-08T00:32:04.058Z,16.97
2023-04-08T00:37:05.727Z,15.43
2023-04-08T00:42:07.512Z,16.03
2023-04-08T00:47:16.207Z,14.90
2023-04-08T00:52:18.001Z,13.37
2023-04-08T00:57:21.932Z,17.03
2023-04-08T01:02:35.320Z,13.37
2023-04-08T01:07:38.644Z,14.13
2023-04-08T01:12:49.654Z,13.37
2023-04-08T01:17:56.342Z,14.37
2023-04-08T01:23:00.857Z,14.77
2023-04-08T01:28:13.746Z,15.73
2023-04-08T01:33:18.850Z,15.70
2023-04-08T01:38:21.653Z,17.37
2023-04-08T01:43:24.582Z,12.23
2023-04-08T01:48:27.340Z,15.47
2023-04-08T01:53:29.013Z,16.67
2023-04-08T01:58:35.269Z,16.47
2023-04-08T02:03:37.813Z,16.23
2023-04-08T02:08:39.584Z,15.13
2023-04-08T02:13:46.615Z,16.40
2023-04-08T02:18:58.593Z,14.77
2023-04-08T02:24:04.646Z,17.37
2023-04-08T02:29:13.677Z,16.67
2023-04-08T02:34:19.112Z,20.00
2023-04-08T02:39:21.107Z,16.50
2023-04-08T02:44:24.874Z,21.40
2023-04-08T02:49:26.581Z,19.00
2023-04-08T02:54:30.688Z,27.17
2023-04-08T02:59:37.715Z,27.93
2023-04-08T03:04:44.105Z,22.37
2023-04-08T03:09:46.160Z,19.27
2023-04-08T03:14:50.346Z,26.57
2023-04-08T03:19:54.473Z,22.23
2023-04-08T03:24:56.387Z,21.73
2023-04-08T03:30:00.312Z,22.57
2023-04-08T03:35:10.480Z,21.37
2023-04-08T03:40:12.808Z,24.20
2023-04-08T03:45:14.474Z,24.70
2023-04-08T03:50:16.145Z,24.20
2023-04-08T03:55:18.229Z,25.40
2023-04-08T04:00:24.542Z,25.10
2023-04-08T04:05:26.216Z,28.63
2023-04-08T04:10:27.874Z,27.23
2023-04-08T04:15:35.098Z,27.10
2023-04-08T04:20:40.532Z,27.03
2023-04-08T04:25:42.620Z,32.20
2023-04-08T04:30:44.356Z,33.37
2023-04-08T04:35:50.906Z,34.07
2023-04-08T04:40:52.810Z,29.67
2023-04-08T04:45:54.826Z,30.80
2023-04-08T04:50:57.632Z,28.97
2023-04-08T04:56:02.215Z,33.83
2023-04-08T05:01:06.280Z,37.07
2023-04-08T05:06:07.998Z,32.57
2023-04-08T05:11:12.952Z,32.80
2023-04-08T05:16:19.370Z,30.67
2023-04-08T05:21:24.023Z,35.40
2023-04-08T05:26:26.370Z,38.70
2023-04-08T05:31:31.123Z,36.50
2023-04-08T05:36:35.343Z,38.50
2023-04-08T05:41:37.014Z,33.73
2023-04-08T05:46:38.873Z,29.60
2023-04-08T05:51:40.569Z,28.83
2023-04-08T05:56:42.262Z,31.60
2023-04-08T06:01:48.558Z,30.07
2023-04-08T06:06:52.737Z,30.25
2023-04-08T06:11:54.430Z,32.43
2023-04-08T06:16:58.591Z,31.70
2023-04-08T06:22:00.356Z,32.57
2023-04-08T06:27:04.445Z,32.93
2023-04-08T06:32:08.632Z,29.33
2023-04-08T06:37:12.837Z,28.47
2023-04-08T06:42:14.509Z,25.73
2023-04-08T06:47:36.659Z,24.70
2023-04-08T06:52:38.426Z,21.40
2023-04-08T06:57:42.598Z,22.20
2023-04-08T07:02:46.613Z,24.93
2023-04-08T07:07:53.041Z,24.83
2023-04-08T07:12:54.922Z,25.17
2023-04-08T07:17:57.178Z,23.87
2023-04-08T07:23:02.043Z,23.33
2023-04-08T07:28:06.474Z,24.67
2023-04-08T07:33:08.247Z,23.20
2023-04-08T07:38:14.805Z,22.17
2023-04-08T07:43:21.690Z,25.90
2023-04-08T07:48:25.754Z,25.23
2023-04-08T07:53:30.172Z,22.27
2023-04-08T07:58:34.187Z,22.00
2023-04-08T08:03:39.510Z,23.73
2023-04-08T08:08:43.703Z,22.27
2023-04-08T08:13:48.043Z,22.23
2023-04-08T08:18:52.958Z,31.63
2023-04-08T08:23:57.062Z,26.53
2023-04-08T08:28:58.888Z,24.13
2023-04-08T08:34:00.825Z,20.50
2023-04-08T08:39:04.852Z,22.57
2023-04-08T08:44:07.732Z,20.53
2023-04-08T08:49:09.484Z,23.33
2023-04-08T08:54:11.327Z,22.20
2023-04-08T08:59:15.652Z,21.53
2023-04-08T09:04:20.480Z,21.53
2023-04-08T09:25:24.713Z,26.10
2023-04-08T09:30:29.937Z,27.33
2023-04-08T09:35:31.718Z,24.95
2023-04-08T09:40:36.425Z,29.33
2023-04-08T09:45:41.597Z,28.30
2023-04-08T09:50:44.892Z,24.87
2023-04-08T09:55:51.317Z,27.37
2023-04-08T10:00:54.908Z,25.75
2023-04-08T10:06:00.170Z,24.10
2023-04-08T10:11:02.091Z,26.42
2023-04-08T10:16:25.368Z,21.67
2023-04-08T10:21:50.207Z,27.17
2023-04-08T10:26:51.982Z,27.07
2023-04-08T10:31:53.963Z,24.58
2023-04-08T10:36:59.092Z,25.92
2023-04-08T10:42:02.668Z,24.05
2023-04-08T10:47:04.724Z,23.63
2023-04-08T10:52:09.678Z,26.00
2023-04-08T10:57:11.446Z,24.45
2023-04-08T11:02:14.800Z,22.57
2023-04-08T11:07:21.195Z,33.05
2023-04-08T11:12:25.746Z,24.73
2023-04-08T11:17:30.434Z,26.45
2023-04-08T11:22:34.540Z,27.60
2023-04-08T11:27:36.745Z,26.13
2023-04-08T11:32:39.028Z,26.48
2023-04-08T11:37:42.057Z,25.38
2023-04-08T11:42:47.208Z,26.58
2023-04-08T11:47:49.204Z,22.77
2023-04-08T11:52:53.680Z,23.15
2023-04-08T11:58:03.318Z,25.83
2023-04-08T12:03:09.694Z,25.98
2023-04-08T12:08:11.654Z,24.85
2023-04-08T12:13:13.352Z,24.50
2023-04-08T12:18:15.021Z,21.80
2023-04-08T12:23:16.894Z,21.48
2023-04-08T12:28:18.583Z,20.88
2023-04-08T12:33:20.639Z,24.52
2023-04-08T12:38:22.394Z,22.45
2023-04-08T12:43:24.569Z,22.38
2023-04-08T12:48:28.535Z,20.35
2023-04-08T12:53:30.422Z,23.70
2023-04-08T12:58:32.144Z,25.02
2023-04-08T13:03:35.496Z,22.75
2023-04-08T13:08:37.470Z,23.20
2023-04-08T13:13:39.411Z,24.25
2023-04-08T13:18:41.546Z,21.02
2023-04-08T13:23:43.339Z,20.35
2023-04-08T13:33:52.306Z,19.45
2023-04-08T13:38:57.509Z,21.10
2023-04-08T13:43:59.745Z,19.90
2023-04-08T13:49:03.191Z,18.20
2023-04-08T13:54:05.127Z,19.63
2023-04-08T13:59:07.338Z,22.58
2023-04-08T14:04:12.025Z,17.23
2023-04-08T14:09:16.084Z,19.40
2023-04-08T14:14:17.807Z,16.67
2023-04-08T14:19:19.697Z,17.20
2023-04-08T14:24:23.588Z,18.45
2023-04-08T14:29:26.635Z,18.00
2023-04-08T14:34:29.541Z,17.80
2023-04-08T14:39:31.255Z,17.85
2023-04-08T14:44:33.081Z,18.08
2023-04-08T14:49:34.786Z,17.92
2023-04-08T14:54:39.537Z,22.65
2023-04-08T14:59:41.246Z,18.83
2023-04-08T15:04:43.181Z,21.23
2023-04-08T15:09:44.948Z,19.75
2023-04-08T15:14:46.650Z,20.75
2023-04-08T15:19:51.005Z,20.23
2023-04-08T15:24:55.405Z,21.20
2023-04-08T15:29:57.271Z,22.02
2023-04-08T15:34:59.632Z,24.17
2023-04-08T15:40:06.172Z,22.92
2023-04-08T15:45:08.680Z,23.02
2023-04-08T15:50:11.085Z,19.30
2023-04-08T15:55:13.036Z,20.52
2023-04-08T16:00:16.648Z,22.67
2023-04-08T16:05:21.083Z,22.98
2023-04-08T16:10:22.861Z,23.65
2023-04-08T16:15:24.604Z,21.63
2023-04-08T16:20:27.801Z,22.50
2023-04-08T16:25:30.365Z,22.52
2023-04-08T16:30:32.165Z,20.45
2023-04-08T16:35:36.449Z,25.73
2023-04-08T16:40:39.216Z,29.17
2023-04-08T16:45:43.997Z,28.77
2023-04-08T16:50:46.078Z,23.90
2023-04-08T16:55:50.251Z,27.75
2023-04-08T17:00:54.407Z,25.38
2023-04-08T17:06:12.170Z,29.55
2023-04-08T17:11:15.078Z,28.98
2023-04-08T17:16:18.040Z,28.52
2023-04-08T17:21:20.349Z,36.78
2023-04-08T17:26:23.461Z,31.92
2023-04-08T17:31:27.721Z,25.77
2023-04-08T17:36:31.984Z,25.05
2023-04-08T17:41:40.484Z,25.23
2023-04-08T17:46:43.115Z,26.42
2023-04-08T17:51:47.384Z,27.13
2023-04-08T17:56:49.637Z,25.42
2023-04-08T18:01:53.862Z,26.60
2023-04-08T18:06:56.611Z,36.92
2023-04-08T18:11:58.328Z,26.73
2023-04-08T18:17:00.288Z,30.50
2023-04-08T18:22:04.562Z,28.30
2023-04-08T18:27:06.410Z,29.02
2023-04-08T18:32:08.236Z,26.27
2023-04-08T18:37:11.142Z,30.67
2023-04-08T18:42:12.840Z,32.55
2023-04-08T18:47:14.648Z,30.48
2023-04-08T18:52:16.438Z,29.83
2023-04-08T18:57:18.225Z,36.78
2023-04-08T19:02:22.847Z,38.97
2023-04-08T19:07:27.821Z,46.90
2023-04-08T19:12:29.706Z,43.50
2023-04-08T19:17:33.682Z,43.33
2023-04-08T19:22:35.596Z,51.47
2023-04-08T19:27:37.618Z,62.63
2023-04-08T19:32:39.421Z,63.38
2023-04-08T19:37:43.459Z,62.53
2023-04-08T19:42:47.430Z,62.97
2023-04-08T19:47:49.388Z,65.30
2023-04-08T19:52:51.312Z,65.47
2023-04-08T19:57:54.021Z,65.20
2023-04-08T20:02:56.204Z,60.10
2023-04-08T20:07:59.076Z,60.30
2023-04-08T20:13:00.837Z,56.23
2023-04-08T20:18:02.675Z,59.90
2023-04-08T20:23:04.486Z,64.83
2023-04-08T20:28:06.237Z,63.73
2023-04-08T20:33:10.426Z,63.90
2023-04-08T20:38:14.679Z,64.60
2023-04-08T20:43:16.882Z,73.47
2023-04-08T20:48:18.603Z,81.10
2023-04-08T20:53:23.741Z,78.40
2023-04-08T20:58:26.022Z,72.87
2023-04-08T21:03:27.935Z,72.67
2023-04-08T21:08:34.367Z,73.47
2023-04-08T21:13:36.052Z,69.03
2023-04-08T21:18:38.929Z,67.97
2023-04-08T21:23:42.986Z,64.87
2023-04-08T21:28:47.337Z,77.03
2023-04-08T21:33:51.160Z,82.20
2023-04-08T21:38:56.205Z,93.50
2023-04-08T21:43:58.240Z,85.50
2023-04-08T21:49:02.302Z,87.40
2023-04-08T21:54:06.421Z,86.20
2023-04-08T21:59:10.613Z,99.60
2023-04-08T22:04:12.432Z,95.37
2023-04-08T22:09:16.737Z,101.60
2023-04-08T22:14:20.827Z,97.37
2023-04-08T22:19:22.719Z,98.43
2023-04-08T22:24:24.449Z,89.60
2023-04-08T22:29:26.173Z,97.80
2023-04-08T22:34:27.859Z,97.67
2023-04-08T22:39:29.515Z,101.73
2023-04-08T22:44:31.304Z,112.03
2023-04-08T22:49:33.013Z,118.13
2023-04-08T22:54:37.759Z,118.87
2023-04-08T22:59:41.601Z,111.83
2023-04-08T23:04:48.245Z,107.20
2023-04-08T23:09:49.974Z,106.80
2023-04-08T23:14:51.689Z,104.93
2023-04-08T23:19:58.216Z,107.10
2023-04-08T23:25:02.525Z,104.07
2023-04-08T23:30:07.483Z,101.20
2023-04-08T23:35:13.960Z,105.50
2023-04-08T23:40:18.192Z,108.03
2023-04-08T23:45:19.890Z,107.07
2023-04-08T23:50:23.066Z,104.50
2023-04-08T23:55:26.906Z,106.33
